createdAt,value
2018-05-13T00:00:47.634Z,94.9
2018-05-13T00:01:48.303Z,94.7
2018-05-13T00:02:48.971Z,94.7
2018-05-13T00:03:49.641Z,94.7
2018-05-13T00:04:50.309Z,94.9
2018-05-13T00:05:50.978Z,94.6
2018-05-13T00:06:51.647Z,94.8
2018-05-13T00:07:52.315Z,94.5
2018-05-13T00:08:52.983Z,94.5
2018-05-13T00:09:53.651Z,94.5
2018-05-13T00:10:54.357Z,94.4
2018-05-13T00:11:55.025Z,94.7
2018-05-13T00:12:55.693Z,94.5
2018-05-13T00:13:56.363Z,94.3
2018-05-13T00:14:57.033Z,94.2
2018-05-13T00:15:57.704Z,94.7
2018-05-13T00:16:58.372Z,94.6
2018-05-13T00:17:59.040Z,94.4
2018-05-13T00:18:59.708Z,94.8
2018-05-13T00:20:00.376Z,94.9
2018-05-13T00:21:01.045Z,94.8
2018-05-13T00:22:01.713Z,94.9
2018-05-13T00:23:02.386Z,94.7
2018-05-13T00:24:03.056Z,95.1
2018-05-13T00:25:03.761Z,94.6
2018-05-13T00:26:04.465Z,95.3
2018-05-13T00:27:05.135Z,95.3
2018-05-13T00:28:05.804Z,95.1
2018-05-13T00:29:06.474Z,95.3
2018-05-13T00:30:07.140Z,95.4
2018-05-13T00:31:07.811Z,95.6
2018-05-13T00:32:08.477Z,95.7
2018-05-13T00:33:09.145Z,95.9
2018-05-13T00:34:09.814Z,95.6
2018-05-13T00:35:10.484Z,95.4
2018-05-13T00:36:11.154Z,96.2
2018-05-13T00:37:11.823Z,96.3
2018-05-13T00:38:12.491Z,96.1
2018-05-13T00:39:13.159Z,96.3
2018-05-13T00:40:13.828Z,95.9
2018-05-13T00:41:14.495Z,95.8
2018-05-13T00:42:15.165Z,95.6
2018-05-13T00:43:15.833Z,95.7
2018-05-13T00:44:16.502Z,95.8
2018-05-13T00:45:17.176Z,95.7
2018-05-13T00:46:17.839Z,96.0
2018-05-13T00:47:18.507Z,95.8
2018-05-13T00:48:19.175Z,96.1
2018-05-13T00:49:19.844Z,96.1
2018-05-13T00:50:20.514Z,95.7
2018-05-13T00:51:21.179Z,96.4
2018-05-13T00:52:21.848Z,96.0
2018-05-13T00:53:22.517Z,96.0
2018-05-13T00:54:23.187Z,95.8
2018-05-13T00:55:23.857Z,96.2
2018-05-13T00:56:24.524Z,95.6
2018-05-13T00:57:25.193Z,95.8
2018-05-13T00:58:25.861Z,95.7
2018-05-13T00:59:26.531Z,95.3
2018-05-13T01:00:27.235Z,95.3
2018-05-13T01:01:27.905Z,95.3
2018-05-13T01:02:28.574Z,95.2
2018-05-13T01:03:29.242Z,95.2
2018-05-13T01:04:29.912Z,95.3
2018-05-13T01:05:30.639Z,95.2
2018-05-13T01:06:31.248Z,95.5
2018-05-13T01:07:31.915Z,94.8
2018-05-13T01:08:32.584Z,94.7
2018-05-13T01:09:33.251Z,94.9
2018-05-13T01:10:33.919Z,94.7
2018-05-13T01:11:34.589Z,94.8
2018-05-13T01:12:35.258Z,95.5
2018-05-13T01:13:35.929Z,95.3
2018-05-13T01:14:36.597Z,95.5
2018-05-13T01:15:37.266Z,95.5
2018-05-13T01:16:37.934Z,94.8
2018-05-13T01:17:38.602Z,94.9
2018-05-13T01:18:39.269Z,94.9
2018-05-13T01:19:39.938Z,94.4
2018-05-13T01:20:40.606Z,94.2
2018-05-13T01:21:41.276Z,94.5
2018-05-13T01:22:41.944Z,93.9
2018-05-13T01:23:42.613Z,93.9
2018-05-13T01:24:43.280Z,93.3
2018-05-13T01:25:43.948Z,93.3
2018-05-13T01:26:44.654Z,93.0
2018-05-13T01:27:45.322Z,92.8
2018-05-13T01:28:45.990Z,92.6
2018-05-13T01:29:46.709Z,92.6
2018-05-13T01:30:47.378Z,93.3
2018-05-13T01:31:48.050Z,93.1
2018-05-13T01:32:48.719Z,93.4
2018-05-13T01:33:49.386Z,93.4
2018-05-13T01:34:50.055Z,93.6
2018-05-13T01:35:50.722Z,93.9
2018-05-13T01:36:51.395Z,93.8
2018-05-13T01:37:52.061Z,93.3
2018-05-13T01:38:52.730Z,94.0
2018-05-13T01:39:53.400Z,93.7
2018-05-13T01:40:54.068Z,94.1
2018-05-13T01:41:54.774Z,94.0
2018-05-13T01:42:55.444Z,94.4
2018-05-13T01:43:56.117Z,93.9
2018-05-13T01:44:56.815Z,94.4
2018-05-13T01:45:57.483Z,94.3
2018-05-13T01:46:58.151Z,94.7
2018-05-13T01:47:58.821Z,94.7
2018-05-13T01:48:59.488Z,94.7
2018-05-13T01:50:00.159Z,95.2
2018-05-13T01:51:00.863Z,95.4
2018-05-13T01:52:01.530Z,94.9
2018-05-13T01:53:02.198Z,95.2
2018-05-13T01:54:02.866Z,95.3
2018-05-13T01:55:03.538Z,95.5
2018-05-13T01:56:04.207Z,95.3
2018-05-13T01:57:04.876Z,95.7
2018-05-13T01:58:05.544Z,95.3
2018-05-13T01:59:06.212Z,95.4
2018-05-13T02:00:06.880Z,95.4
2018-05-13T02:01:07.549Z,95.4
2018-05-13T02:02:08.216Z,95.3
2018-05-13T02:03:08.886Z,95.4
2018-05-13T02:04:09.555Z,95.3
2018-05-13T02:05:10.223Z,95.3
2018-05-13T02:06:10.891Z,95.2
2018-05-13T02:07:11.558Z,95.1
2018-05-13T02:08:12.226Z,95.5
2018-05-13T02:09:12.897Z,95.2
2018-05-13T02:10:13.561Z,95.3
2018-05-13T02:11:14.232Z,95.3
2018-05-13T02:12:14.934Z,95.3
2018-05-13T02:13:15.604Z,95.4
2018-05-13T02:14:16.271Z,95.3
2018-05-13T02:15:16.941Z,95.3
2018-05-13T02:16:17.611Z,95.3
2018-05-13T02:17:18.281Z,95.3
2018-05-13T02:18:18.948Z,95.4
2018-05-13T02:19:19.616Z,95.3
2018-05-13T02:20:20.282Z,95.4
2018-05-13T02:21:20.950Z,95.3
2018-05-13T02:22:21.623Z,95.3
2018-05-13T02:23:22.289Z,95.2
2018-05-13T02:24:22.958Z,95.4
2018-05-13T02:25:23.626Z,95.5
2018-05-13T02:26:24.294Z,94.9
2018-05-13T02:27:24.962Z,95.5
2018-05-13T02:28:25.629Z,95.4
2018-05-13T02:29:26.298Z,94.6
2018-05-13T02:30:26.967Z,94.7
2018-05-13T02:31:27.635Z,94.7
2018-05-13T02:32:28.304Z,94.9
2018-05-13T02:33:29.015Z,94.7
2018-05-13T02:34:29.683Z,94.5
2018-05-13T02:35:30.353Z,94.7
2018-05-13T02:36:31.063Z,94.8
2018-05-13T02:37:31.729Z,95.0
2018-05-13T02:38:32.440Z,95.1
2018-05-13T02:39:33.145Z,94.9
2018-05-13T02:40:33.850Z,94.8
2018-05-13T02:41:34.600Z,94.7
2018-05-13T02:42:35.186Z,94.7
2018-05-13T02:43:35.856Z,94.7
2018-05-13T02:44:36.521Z,95.4
2018-05-13T02:45:37.240Z,95.5
2018-05-13T02:46:37.909Z,95.2
2018-05-13T02:47:38.576Z,95.5
2018-05-13T02:48:39.244Z,95.5
2018-05-13T02:49:39.912Z,95.4
2018-05-13T02:50:40.584Z,95.3
2018-05-13T02:51:41.250Z,95.6
2018-05-13T02:52:41.922Z,95.8
2018-05-13T02:53:42.626Z,95.9
2018-05-13T02:54:43.296Z,96.1
2018-05-13T02:55:43.967Z,95.6
2018-05-13T02:56:44.634Z,96.6
2018-05-13T02:57:45.302Z,96.5
2018-05-13T02:58:45.971Z,96.7
2018-05-13T02:59:46.650Z,96.6
2018-05-13T03:00:47.345Z,96.8
2018-05-13T03:01:48.051Z,96.8
2018-05-13T03:02:48.717Z,97.1
2018-05-13T03:03:49.386Z,97.3
2018-05-13T03:04:50.052Z,97.2
2018-05-13T03:05:50.726Z,97.4
2018-05-13T03:06:51.392Z,97.8
2018-05-13T03:07:52.062Z,97.2
2018-05-13T03:08:52.730Z,98.0
2018-05-13T03:09:53.439Z,97.8
2018-05-13T03:10:54.107Z,98.0
2018-05-13T03:11:54.811Z,98.2
2018-05-13T03:12:55.479Z,98.0
2018-05-13T03:13:56.147Z,98.8
2018-05-13T03:14:56.816Z,98.5
2018-05-13T03:15:57.484Z,99.0
2018-05-13T03:16:58.154Z,98.9
2018-05-13T03:17:58.824Z,98.8
2018-05-13T03:18:59.540Z,98.5
2018-05-13T03:20:00.163Z,99.3
2018-05-13T03:21:00.832Z,99.3
2018-05-13T03:22:01.502Z,99.7
2018-05-13T03:23:02.171Z,99.6
2018-05-13T03:24:02.879Z,99.9
2018-05-13T03:25:03.547Z,99.7
2018-05-13T03:26:04.215Z,99.9
2018-05-13T03:27:04.885Z,100.0
2018-05-13T03:28:05.594Z,100.0
2018-05-13T03:29:06.265Z,100.0
2018-05-13T03:30:06.941Z,100.0
2018-05-13T03:31:07.611Z,100.0
2018-05-13T03:32:08.280Z,99.7
2018-05-13T03:33:08.954Z,100.0
2018-05-13T03:34:09.622Z,99.9
2018-05-13T03:35:10.293Z,100.0
2018-05-13T03:36:10.964Z,100.0
2018-05-13T03:37:11.635Z,100.0
2018-05-13T03:38:12.315Z,100.0
2018-05-13T03:39:13.018Z,100.0
2018-05-13T03:40:13.690Z,100.0
2018-05-13T03:41:14.363Z,100.0
2018-05-13T03:42:15.035Z,100.0
2018-05-13T03:43:15.707Z,100.0
2018-05-13T03:44:16.385Z,100.0
2018-05-13T03:45:17.054Z,100.0
2018-05-13T03:46:17.728Z,100.0
2018-05-13T03:47:18.401Z,100.0
2018-05-13T03:48:19.072Z,100.0
2018-05-13T03:49:19.740Z,100.0
2018-05-13T03:50:20.412Z,100.0
2018-05-13T03:51:21.137Z,100.0
2018-05-13T03:52:21.810Z,100.0
2018-05-13T03:53:22.479Z,100.0
2018-05-13T03:54:23.151Z,100.0
2018-05-13T03:55:23.823Z,100.0
2018-05-13T03:56:24.497Z,100.0
2018-05-13T03:57:25.170Z,100.0
2018-05-13T03:58:25.841Z,100.0
2018-05-13T03:59:26.512Z,100.0
2018-05-13T04:00:27.183Z,100.0
2018-05-13T04:01:27.855Z,100.0
2018-05-13T04:02:28.530Z,100.0
2018-05-13T04:03:29.238Z,100.0
2018-05-13T04:04:29.912Z,100.0
2018-05-13T04:05:30.584Z,100.0
2018-05-13T04:06:31.258Z,100.0
2018-05-13T04:07:31.930Z,100.0
2018-05-13T04:08:32.603Z,100.0
2018-05-13T04:09:33.278Z,100.0
2018-05-13T04:10:33.951Z,100.0
2018-05-13T04:11:34.624Z,100.0
2018-05-13T04:12:35.301Z,100.0
2018-05-13T04:13:35.969Z,100.0
2018-05-13T04:14:36.644Z,100.0
2018-05-13T04:15:37.317Z,100.0
2018-05-13T04:16:37.991Z,100.0
2018-05-13T04:17:38.667Z,100.0
2018-05-13T04:18:39.336Z,100.0
2018-05-13T04:19:40.008Z,100.0
2018-05-13T04:20:40.681Z,100.0
2018-05-13T04:21:41.430Z,100.0
2018-05-13T04:22:42.060Z,100.0
2018-05-13T04:23:42.731Z,100.0
2018-05-13T04:24:43.406Z,100.0
2018-05-13T04:25:44.079Z,100.0
2018-05-13T04:26:44.752Z,100.0
2018-05-13T04:27:45.426Z,100.0
2018-05-13T04:28:46.103Z,100.0
2018-05-13T04:29:46.775Z,100.0
2018-05-13T04:30:47.483Z,100.0
2018-05-13T04:31:48.157Z,100.0
2018-05-13T04:32:48.834Z,100.0
2018-05-13T04:33:49.505Z,100.0
2018-05-13T04:34:50.177Z,100.0
2018-05-13T04:35:50.850Z,100.0
2018-05-13T04:36:51.524Z,100.0
2018-05-13T04:37:52.197Z,100.0
2018-05-13T04:38:52.871Z,100.0
2018-05-13T04:39:53.544Z,100.0
2018-05-13T04:40:54.217Z,100.0
2018-05-13T04:41:54.893Z,100.0
2018-05-13T04:42:55.608Z,100.0
2018-05-13T04:43:56.237Z,100.0
2018-05-13T04:44:56.949Z,100.0
2018-05-13T04:45:57.624Z,100.0
2018-05-13T04:46:58.297Z,100.0
2018-05-13T04:47:58.971Z,100.0
2018-05-13T04:48:59.644Z,100.0
2018-05-13T04:50:00.318Z,100.0
2018-05-13T04:51:00.993Z,100.0
2018-05-13T04:52:01.666Z,100.0
2018-05-13T04:53:02.339Z,100.0
2018-05-13T04:54:03.012Z,99.5
2018-05-13T04:55:03.682Z,99.7
2018-05-13T04:56:04.358Z,100.0
2018-05-13T04:57:05.033Z,100.0
2018-05-13T04:58:05.702Z,99.5
2018-05-13T04:59:06.413Z,99.8
2018-05-13T05:00:07.092Z,100.0
2018-05-13T05:01:07.765Z,99.6
2018-05-13T05:02:08.431Z,99.4
2018-05-13T05:03:09.105Z,99.6
2018-05-13T05:04:09.780Z,99.5
2018-05-13T05:05:10.451Z,99.5
2018-05-13T05:06:11.161Z,99.1
2018-05-13T05:07:11.834Z,99.2
2018-05-13T05:08:12.507Z,98.8
2018-05-13T05:09:13.179Z,99.0
2018-05-13T05:10:13.855Z,98.5
2018-05-13T05:11:14.527Z,98.7
2018-05-13T05:12:15.200Z,98.3
2018-05-13T05:13:15.873Z,97.9
2018-05-13T05:14:16.544Z,97.9
2018-05-13T05:15:17.216Z,98.2
2018-05-13T05:16:17.891Z,97.8
2018-05-13T05:17:18.568Z,97.9
2018-05-13T05:18:19.236Z,97.2
2018-05-13T05:19:19.911Z,97.4
2018-05-13T05:20:20.583Z,97.1
2018-05-13T05:21:21.256Z,97.0
2018-05-13T05:22:21.931Z,97.1
2018-05-13T05:23:22.604Z,97.2
2018-05-13T05:24:23.279Z,97.6
2018-05-13T05:25:23.952Z,96.9
2018-05-13T05:26:24.628Z,96.8
2018-05-13T05:27:25.302Z,96.8
2018-05-13T05:28:25.975Z,96.6
2018-05-13T05:29:26.650Z,96.5
2018-05-13T05:30:27.361Z,96.4
2018-05-13T05:31:28.035Z,96.4
2018-05-13T05:32:28.708Z,96.8
2018-05-13T05:33:29.384Z,96.1
2018-05-13T05:34:30.062Z,96.2
2018-05-13T05:35:30.732Z,95.6
2018-05-13T05:36:31.405Z,95.9
2018-05-13T05:37:32.079Z,95.8
2018-05-13T05:38:32.757Z,95.4
2018-05-13T05:39:33.429Z,95.6
2018-05-13T05:40:34.101Z,95.3
2018-05-13T05:41:34.775Z,94.7
2018-05-13T05:42:35.459Z,94.2
2018-05-13T05:43:36.159Z,94.6
2018-05-13T05:44:36.833Z,94.4
2018-05-13T05:45:37.510Z,94.5
2018-05-13T05:46:38.182Z,94.1
2018-05-13T05:47:38.857Z,93.9
2018-05-13T05:48:39.532Z,94.2
2018-05-13T05:49:40.205Z,93.6
2018-05-13T05:50:40.880Z,93.5
2018-05-13T05:51:41.555Z,93.5
2018-05-13T05:52:42.230Z,93.2
2018-05-13T05:53:42.904Z,93.0
2018-05-13T05:54:43.579Z,92.9
2018-05-13T05:55:44.292Z,92.8
2018-05-13T05:56:44.969Z,92.4
2018-05-13T05:57:45.641Z,92.6
2018-05-13T05:58:46.395Z,92.6
2018-05-13T05:59:47.025Z,92.3
2018-05-13T06:00:47.698Z,91.8
2018-05-13T06:01:48.373Z,91.8
2018-05-13T06:02:49.049Z,90.8
2018-05-13T06:03:49.723Z,91.2
2018-05-13T06:04:50.398Z,90.9
2018-05-13T06:05:51.073Z,91.5
2018-05-13T06:06:51.747Z,91.3
2018-05-13T06:07:52.423Z,91.0
2018-05-13T06:08:53.099Z,91.6
2018-05-13T06:09:53.775Z,90.6
2018-05-13T06:10:54.491Z,90.2
2018-05-13T06:11:55.163Z,90.4
2018-05-13T06:12:55.839Z,89.9
2018-05-13T06:13:56.513Z,90.0
2018-05-13T06:14:57.188Z,90.3
2018-05-13T06:15:57.862Z,89.5
2018-05-13T06:16:58.537Z,88.9
2018-05-13T06:17:59.213Z,88.1
2018-05-13T06:18:59.926Z,87.0
2018-05-13T06:20:00.606Z,84.6
2018-05-13T06:21:01.281Z,81.3
2018-05-13T06:22:01.994Z,77.6
2018-05-13T06:23:02.669Z,75.5
2018-05-13T06:24:03.347Z,72.1
2018-05-13T06:25:04.098Z,68.6
2018-05-13T06:26:04.702Z,66.4
2018-05-13T06:27:05.385Z,64.4
2018-05-13T06:28:06.059Z,62.0
2018-05-13T06:29:06.736Z,60.1
2018-05-13T06:30:07.417Z,57.6
2018-05-13T06:31:08.095Z,56.1
2018-05-13T06:32:08.776Z,53.9
2018-05-13T06:33:09.503Z,52.8
2018-05-13T06:34:10.185Z,51.2
2018-05-13T06:35:10.866Z,50.0
2018-05-13T06:36:11.583Z,48.1
2018-05-13T06:37:12.264Z,47.2
2018-05-13T06:38:12.943Z,46.8
2018-05-13T06:39:13.626Z,46.9
2018-05-13T06:40:14.308Z,46.0
2018-05-13T06:41:14.990Z,44.7
2018-05-13T06:42:15.670Z,44.7
2018-05-13T06:43:16.353Z,43.4
2018-05-13T06:44:17.036Z,42.7
2018-05-13T06:45:17.763Z,42.3
2018-05-13T06:46:18.401Z,42.1
2018-05-13T06:47:19.086Z,41.7
2018-05-13T06:48:19.793Z,41.4
2018-05-13T06:49:20.462Z,41.1
2018-05-13T06:50:21.173Z,41.3
2018-05-13T06:51:21.932Z,40.4
2018-05-13T06:52:22.540Z,39.6
2018-05-13T06:53:23.225Z,39.3
2018-05-13T06:54:23.908Z,38.9
2018-05-13T06:55:24.595Z,38.6
2018-05-13T06:56:25.278Z,38.4
2018-05-13T06:57:26.029Z,38.6
2018-05-13T06:58:26.645Z,37.7
2018-05-13T06:59:27.330Z,38.0
2018-05-13T07:00:28.015Z,37.3
2018-05-13T07:01:28.699Z,37.3
2018-05-13T07:02:29.383Z,36.9
2018-05-13T07:03:30.069Z,36.3
2018-05-13T07:04:30.753Z,36.2
2018-05-13T07:05:31.439Z,35.9
2018-05-13T07:06:32.124Z,35.0
2018-05-13T07:07:32.809Z,35.0
2018-05-13T07:08:33.493Z,35.1
2018-05-13T07:09:34.179Z,34.7
2018-05-13T07:10:34.863Z,34.6
2018-05-13T07:11:35.546Z,34.5
2018-05-13T07:12:36.232Z,34.3
2018-05-13T07:13:36.916Z,34.7
2018-05-13T07:14:37.601Z,34.3
2018-05-13T07:15:38.286Z,34.0
2018-05-13T07:16:38.972Z,33.3
2018-05-13T07:17:39.657Z,32.8
2018-05-13T07:18:40.391Z,32.6
2018-05-13T07:19:41.077Z,33.4
2018-05-13T07:20:41.761Z,33.2
2018-05-13T07:21:42.449Z,33.1
2018-05-13T07:22:43.134Z,33.4
2018-05-13T07:23:43.823Z,33.3
2018-05-13T07:24:44.503Z,33.1
2018-05-13T07:25:45.189Z,32.4
2018-05-13T07:26:45.876Z,32.5
2018-05-13T07:27:46.562Z,33.5
2018-05-13T07:28:47.246Z,33.3
2018-05-13T07:29:48.003Z,33.1
2018-05-13T07:30:48.618Z,33.0
2018-05-13T07:31:49.302Z,32.7
2018-05-13T07:32:49.988Z,32.3
2018-05-13T07:33:50.673Z,32.7
2018-05-13T07:34:51.357Z,33.2
2018-05-13T07:35:52.043Z,33.8
2018-05-13T07:36:52.728Z,33.7
2018-05-13T07:37:53.413Z,33.5
2018-05-13T07:38:54.099Z,32.8
2018-05-13T07:39:54.783Z,32.8
2018-05-13T07:40:55.470Z,33.2
2018-05-13T07:41:56.159Z,33.3
2018-05-13T07:42:56.841Z,32.6
2018-05-13T07:43:57.525Z,32.3
2018-05-13T07:44:58.211Z,32.2
2018-05-13T07:45:58.896Z,32.1
2018-05-13T07:46:59.581Z,31.8
2018-05-13T07:48:00.274Z,31.5
2018-05-13T07:49:00.989Z,31.5
2018-05-13T07:50:01.678Z,31.3
2018-05-13T07:51:02.469Z,31.6
2018-05-13T07:52:03.049Z,32.1
2018-05-13T07:53:03.733Z,32.8
2018-05-13T07:54:04.419Z,32.6
2018-05-13T07:55:05.109Z,32.4
2018-05-13T07:56:05.790Z,32.2
2018-05-13T07:57:06.474Z,32.1
2018-05-13T07:58:07.159Z,31.9
2018-05-13T07:59:07.844Z,32.1
2018-05-13T08:00:08.531Z,31.6
2018-05-13T08:01:09.219Z,31.2
2018-05-13T08:02:09.940Z,31.1
2018-05-13T08:03:10.623Z,31.4
2018-05-13T08:04:11.309Z,31.2
2018-05-13T08:05:11.995Z,31.1
2018-05-13T08:06:12.722Z,32.3
2018-05-13T08:07:13.367Z,32.0
2018-05-13T08:08:14.051Z,32.1
2018-05-13T08:09:14.739Z,32.7
2018-05-13T08:10:15.422Z,32.6
2018-05-13T08:11:16.108Z,31.8
2018-05-13T08:12:16.792Z,32.3
2018-05-13T08:13:17.514Z,32.0
2018-05-13T08:14:18.200Z,32.0
2018-05-13T08:15:18.889Z,31.4
2018-05-13T08:16:19.569Z,31.5
2018-05-13T08:17:20.255Z,31.7
2018-05-13T08:18:20.939Z,31.4
2018-05-13T08:19:21.626Z,31.5
2018-05-13T08:20:22.345Z,31.7
2018-05-13T08:21:22.997Z,31.1
2018-05-13T08:22:23.681Z,31.2
2018-05-13T08:23:24.369Z,30.9
2018-05-13T08:24:25.052Z,31.2
2018-05-13T08:25:25.738Z,31.4
2018-05-13T08:26:26.424Z,30.8
2018-05-13T08:27:27.108Z,30.6
2018-05-13T08:28:27.797Z,30.8
2018-05-13T08:29:28.481Z,31.3
2018-05-13T08:30:29.166Z,31.6
2018-05-13T08:31:29.857Z,31.9
2018-05-13T08:32:30.534Z,32.0
2018-05-13T08:33:31.220Z,32.0
2018-05-13T08:34:31.955Z,31.8
2018-05-13T08:35:32.640Z,31.4
2018-05-13T08:36:33.326Z,31.5
2018-05-13T08:37:34.014Z,30.9
2018-05-13T08:38:34.701Z,30.6
2018-05-13T08:39:35.385Z,29.9
2018-05-13T08:40:36.068Z,30.3
2018-05-13T08:41:36.753Z,30.9
2018-05-13T08:42:37.439Z,31.3
2018-05-13T08:43:38.124Z,31.1
2018-05-13T08:44:38.809Z,31.6
2018-05-13T08:45:39.492Z,31.7
2018-05-13T08:46:40.177Z,32.0
2018-05-13T08:47:40.863Z,31.8
2018-05-13T08:48:41.549Z,31.6
2018-05-13T08:49:42.282Z,31.4
2018-05-13T08:50:42.970Z,30.6
2018-05-13T08:51:43.719Z,30.6
2018-05-13T08:52:44.338Z,31.0
2018-05-13T08:53:45.023Z,30.7
2018-05-13T08:54:45.708Z,31.2
2018-05-13T08:55:46.394Z,30.8
2018-05-13T08:56:47.084Z,30.9
2018-05-13T08:57:47.803Z,30.6
2018-05-13T08:58:48.490Z,30.3
2018-05-13T08:59:49.172Z,29.5
2018-05-13T09:00:49.858Z,29.5
2018-05-13T09:01:50.543Z,29.8
2018-05-13T09:02:51.228Z,29.5
2018-05-13T09:03:51.911Z,29.7
2018-05-13T09:04:52.599Z,29.4
2018-05-13T09:05:53.316Z,29.1
2018-05-13T09:06:54.004Z,29.1
2018-05-13T09:07:54.728Z,29.0
2018-05-13T09:08:55.410Z,29.2
2018-05-13T09:09:56.095Z,30.0
2018-05-13T09:10:56.778Z,30.3
2018-05-13T09:11:57.465Z,30.5
2018-05-13T09:12:58.185Z,30.3
2018-05-13T09:13:58.870Z,30.3
2018-05-13T09:14:59.553Z,30.8
2018-05-13T09:16:00.238Z,31.3
2018-05-13T09:17:00.928Z,32.1
2018-05-13T09:18:01.604Z,32.1
2018-05-13T09:19:02.290Z,32.0
2018-05-13T09:20:02.979Z,32.1
2018-05-13T09:21:03.657Z,32.3
2018-05-13T09:22:04.341Z,31.5
2018-05-13T09:23:05.024Z,31.4
2018-05-13T09:24:05.708Z,31.4
2018-05-13T09:25:06.393Z,31.3
2018-05-13T09:26:07.077Z,31.8
2018-05-13T09:27:07.763Z,31.6
2018-05-13T09:28:08.444Z,31.5
2018-05-13T09:29:09.128Z,31.6
2018-05-13T09:30:55.468Z,31.7
2018-05-13T09:31:56.154Z,31.4
2018-05-13T09:32:56.888Z,31.8
2018-05-13T09:33:57.522Z,32.1
2018-05-13T09:34:58.205Z,32.2
2018-05-13T09:35:58.889Z,32.0
2018-05-13T09:36:59.573Z,32.0
2018-05-13T09:38:00.259Z,31.9
2018-05-13T09:39:00.941Z,32.0
2018-05-13T09:40:01.626Z,31.5
2018-05-13T09:41:02.360Z,32.1
2018-05-13T09:42:03.046Z,32.1
2018-05-13T09:43:03.730Z,32.8
2018-05-13T09:44:04.414Z,32.9
2018-05-13T09:45:05.099Z,32.8
2018-05-13T09:46:05.780Z,33.6
2018-05-13T09:47:06.465Z,33.9
2018-05-13T09:48:07.148Z,34.1
2018-05-13T09:49:07.833Z,33.7
2018-05-13T09:50:08.517Z,33.7
2018-05-13T09:51:09.204Z,34.1
2018-05-13T09:52:09.887Z,34.0
2018-05-13T09:53:10.571Z,34.1
2018-05-13T09:54:11.255Z,34.5
2018-05-13T09:55:11.939Z,34.7
2018-05-13T09:56:12.622Z,35.2
2018-05-13T09:57:13.307Z,35.7
2018-05-13T09:58:13.991Z,35.4
2018-05-13T09:59:14.675Z,35.5
2018-05-13T10:00:15.357Z,35.6
2018-05-13T10:01:16.048Z,35.9
2018-05-13T10:02:16.762Z,35.1
2018-05-13T10:03:17.446Z,36.1
2018-05-13T10:04:18.132Z,36.6
2018-05-13T10:05:18.814Z,36.6
2018-05-13T10:06:19.499Z,36.3
2018-05-13T10:07:20.183Z,36.6
2018-05-13T10:08:20.866Z,36.6
2018-05-13T10:09:21.550Z,36.5
2018-05-13T10:10:22.235Z,36.4
2018-05-13T10:11:22.966Z,36.8
2018-05-13T10:12:23.601Z,37.3
2018-05-13T10:13:24.284Z,37.3
2018-05-13T10:14:24.973Z,37.0
2018-05-13T10:15:25.652Z,36.2
2018-05-13T10:16:26.337Z,36.5
2018-05-13T10:17:27.021Z,37.6
2018-05-13T10:18:27.704Z,37.5
2018-05-13T10:19:28.423Z,37.5
2018-05-13T10:20:29.075Z,37.5
2018-05-13T10:21:29.759Z,38.5
2018-05-13T10:22:30.442Z,38.7
2018-05-13T10:23:31.125Z,38.3
2018-05-13T10:24:31.811Z,38.6
2018-05-13T10:25:32.496Z,39.0
2018-05-13T10:26:33.216Z,39.5
2018-05-13T10:27:33.936Z,40.0
2018-05-13T10:28:34.620Z,40.4
2018-05-13T10:29:35.303Z,40.8
2018-05-13T10:30:35.991Z,41.2
2018-05-13T10:31:36.670Z,41.4
2018-05-13T10:32:37.361Z,41.7
2018-05-13T10:33:38.076Z,42.5
2018-05-13T10:34:38.760Z,42.1
2018-05-13T10:35:39.448Z,43.0
2018-05-13T10:36:40.126Z,43.7
2018-05-13T10:37:40.811Z,44.3
2018-05-13T10:38:41.492Z,44.6
2018-05-13T10:39:42.176Z,44.7
2018-05-13T10:40:42.858Z,44.3
2018-05-13T10:41:43.540Z,44.4
2018-05-13T10:42:44.224Z,44.4
2018-05-13T10:43:44.907Z,44.4
2018-05-13T10:44:45.589Z,44.9
2018-05-13T10:45:46.272Z,45.1
2018-05-13T10:46:46.955Z,46.1
2018-05-13T10:47:47.639Z,45.3
2018-05-13T10:48:48.321Z,45.8
2018-05-13T10:49:49.003Z,47.0
2018-05-13T10:50:49.694Z,46.9
2018-05-13T10:51:50.406Z,47.4
2018-05-13T10:52:51.088Z,47.8
2018-05-13T10:53:51.772Z,47.7
2018-05-13T10:54:52.453Z,48.4
2018-05-13T10:55:53.135Z,47.8
2018-05-13T10:56:53.856Z,47.2
2018-05-13T10:57:54.538Z,46.2
2018-05-13T10:58:55.219Z,46.4
2018-05-13T10:59:55.902Z,46.7
2018-05-13T11:00:56.584Z,46.4
2018-05-13T11:01:57.266Z,46.1
2018-05-13T11:02:57.950Z,45.5
2018-05-13T11:03:58.628Z,46.3
2018-05-13T11:04:59.313Z,45.8
2018-05-13T11:05:59.995Z,45.9
2018-05-13T11:07:00.678Z,44.8
2018-05-13T11:08:01.359Z,45.0
2018-05-13T11:09:02.040Z,45.5
2018-05-13T11:10:02.750Z,46.5
2018-05-13T11:11:03.405Z,46.3
2018-05-13T11:12:04.086Z,45.8
2018-05-13T11:13:04.807Z,45.2
2018-05-13T11:14:05.488Z,45.7
2018-05-13T11:15:06.169Z,45.2
2018-05-13T11:16:06.852Z,44.7
2018-05-13T11:17:07.534Z,45.1
2018-05-13T11:18:08.216Z,46.1
2018-05-13T11:19:08.899Z,46.1
2018-05-13T11:20:09.647Z,46.1
2018-05-13T11:21:10.259Z,46.2
2018-05-13T11:22:10.943Z,45.8
2018-05-13T11:23:11.624Z,46.1
2018-05-13T11:24:12.306Z,45.0
2018-05-13T11:25:12.991Z,45.3
2018-05-13T11:26:13.669Z,45.5
2018-05-13T11:27:14.352Z,44.6
2018-05-13T11:28:15.035Z,44.8
2018-05-13T11:29:15.718Z,44.4
2018-05-13T11:30:16.402Z,45.1
2018-05-13T11:31:17.079Z,46.0
2018-05-13T11:32:17.762Z,45.3
2018-05-13T11:33:18.445Z,44.5
2018-05-13T11:34:19.127Z,44.4
2018-05-13T11:35:19.809Z,45.2
2018-05-13T11:36:20.490Z,45.3
2018-05-13T11:37:21.175Z,46.1
2018-05-13T11:38:21.856Z,47.0
2018-05-13T11:39:22.542Z,46.3
2018-05-13T11:40:23.221Z,46.5
2018-05-13T11:41:23.902Z,47.0
2018-05-13T11:42:24.584Z,47.0
2018-05-13T11:43:25.267Z,47.1
2018-05-13T11:44:25.948Z,46.8
2018-05-13T11:45:26.630Z,46.0
2018-05-13T11:46:27.313Z,46.5
2018-05-13T11:47:27.996Z,46.2
2018-05-13T11:48:28.677Z,46.0
2018-05-13T11:49:29.358Z,46.0
2018-05-13T11:50:30.041Z,45.8
2018-05-13T11:51:30.759Z,45.6
2018-05-13T11:52:31.441Z,45.8
2018-05-13T11:53:32.124Z,46.3
2018-05-13T11:54:32.848Z,46.5
2018-05-13T11:55:33.524Z,46.6
2018-05-13T11:56:34.294Z,45.9
2018-05-13T11:57:34.886Z,46.3
2018-05-13T11:58:35.566Z,45.9
2018-05-13T11:59:36.250Z,45.5
2018-05-13T12:00:36.929Z,44.8
2018-05-13T12:01:37.610Z,45.2
2018-05-13T12:02:38.291Z,44.4
2018-05-13T12:03:38.973Z,42.4
2018-05-13T12:04:39.655Z,42.8
2018-05-13T12:05:40.339Z,42.9
2018-05-13T12:06:41.019Z,42.8
2018-05-13T12:07:41.703Z,42.7
2018-05-13T12:08:42.419Z,42.0
2018-05-13T12:09:43.099Z,41.9
2018-05-13T12:10:43.781Z,42.0
2018-05-13T12:11:44.463Z,41.9
2018-05-13T12:12:45.147Z,42.0
2018-05-13T12:13:45.865Z,41.6
2018-05-13T12:14:46.548Z,41.8
2018-05-13T12:15:47.226Z,41.5
2018-05-13T12:16:47.909Z,41.5
2018-05-13T12:17:48.590Z,41.0
2018-05-13T12:18:49.272Z,41.7
2018-05-13T12:19:49.953Z,41.3
2018-05-13T12:20:50.634Z,40.7
2018-05-13T12:21:51.315Z,40.9
2018-05-13T12:22:51.997Z,40.0
2018-05-13T12:23:52.678Z,40.1
2018-05-13T12:24:53.362Z,41.4
2018-05-13T12:25:54.042Z,41.3
2018-05-13T12:26:54.723Z,40.8
2018-05-13T12:27:55.406Z,40.7
2018-05-13T12:28:56.171Z,41.2
2018-05-13T12:29:56.768Z,41.7
2018-05-13T12:30:57.447Z,41.7
2018-05-13T12:31:58.131Z,41.5
2018-05-13T12:32:58.848Z,40.8
2018-05-13T12:33:59.530Z,40.9
2018-05-13T12:35:00.212Z,40.3
2018-05-13T12:36:00.894Z,39.6
2018-05-13T12:37:01.579Z,38.5
2018-05-13T12:38:02.294Z,38.6
2018-05-13T12:39:02.939Z,38.6
2018-05-13T12:40:03.664Z,38.0
2018-05-13T12:41:04.378Z,38.5
2018-05-13T12:42:05.060Z,38.3
2018-05-13T12:43:05.740Z,38.8
2018-05-13T12:44:06.422Z,39.0
2018-05-13T12:45:07.140Z,38.6
2018-05-13T12:46:07.823Z,38.7
2018-05-13T12:47:08.503Z,37.7
2018-05-13T12:48:09.186Z,37.8
2018-05-13T12:49:09.903Z,38.7
2018-05-13T12:50:10.625Z,37.9
2018-05-13T12:51:11.264Z,38.0
2018-05-13T12:52:11.947Z,39.3
2018-05-13T12:53:12.626Z,39.0
2018-05-13T12:54:13.312Z,39.6
2018-05-13T12:55:14.027Z,39.8
2018-05-13T12:56:14.773Z,38.8
2018-05-13T12:57:15.387Z,38.7
2018-05-13T12:58:16.075Z,39.0
2018-05-13T12:59:16.749Z,38.2
2018-05-13T13:00:17.429Z,38.8
2018-05-13T13:01:18.112Z,38.4
2018-05-13T13:02:18.833Z,38.6
2018-05-13T13:03:19.471Z,38.7
2018-05-13T13:04:20.152Z,39.2
2018-05-13T13:05:20.832Z,38.1
2018-05-13T13:06:21.512Z,38.8
2018-05-13T13:07:22.193Z,38.8
2018-05-13T13:08:22.880Z,39.0
2018-05-13T13:09:23.615Z,38.5
2018-05-13T13:10:24.235Z,38.3
2018-05-13T13:11:24.916Z,37.0
2018-05-13T13:12:25.596Z,37.2
2018-05-13T13:13:26.275Z,37.5
2018-05-13T13:14:26.956Z,37.2
2018-05-13T13:15:27.637Z,37.5
2018-05-13T13:16:28.318Z,38.4
2018-05-13T13:17:28.998Z,37.9
2018-05-13T13:18:29.679Z,37.4
2018-05-13T13:19:30.360Z,37.4
2018-05-13T13:20:31.039Z,37.7
2018-05-13T13:21:31.720Z,38.2
2018-05-13T13:22:32.440Z,37.5
2018-05-13T13:23:33.121Z,36.4
2018-05-13T13:24:33.831Z,37.3
2018-05-13T13:25:34.511Z,37.4